Aérodrome :
LOGIN :

S'inscrire | Disclaimer

   EN    FR    IT 

 










Légende :    VFR   VFR Marginal   IFR   IFR Intensif   IFR Très Intensif
Visi : 
Plafond : 
>= 8 km
>= 3000ft
5 à 8 km
1000 à 3000 ft
1500m à 5 km
500 à 1000 ft
800 à 1500m
200 à 500 ft
< 800m
< 200 ft
Symboles :   Orages  Brouillard  Fortes neiges  Fortes précipitations  Vent > 20 kt
SIGMETs :   Divers  Orages  Givrage  Turbulence  Onde Orograph.  Cendres Volcan.






- Altitude de l'aérodrome : 144 ft
- Code IATA : PGF


LFMP - Perpignan

DERNIER METAR :
  • 171300Z AUTO 30013KT 280V360 9999 FEW043 13/04 Q1007 TEMPO 32015G25KT SHRA BKN020TCU

METARs EXPIRÉS :
  • 171230Z AUTO 30013KT 9999 FEW094 13/03 Q1007 TEMPO 32015G25KT SHRA BKN020TCU
  • 171200Z AUTO 29014KT 9999 FEW096 12/03 Q1007 TEMPO 32015G25KT SHRA BKN020TCU
  • 171130Z AUTO 29017KT 260V320 9999 FEW080 SCT100 11/03 Q1008 TEMPO 32015G25KT SHRA BKN020TCU
  • 171100Z AUTO 29015KT 9999 FEW076 11/04 Q1008 TEMPO 32015G25KT SHRA BKN020TCU
  • 171030Z AUTO 29015KT 9999 SCT070 SCT098 10/04 Q1008 TEMPO 32015G25KT SHRA BKN020TCU

TAF TAF LFMP
Valide du 17 à 09h jusqu'au 18 à 09h UTC


170800Z 1709/1809 32010KT CAVOK
TEMPO 1709/1715 32015G25KT
PROB30
TEMPO 1709/1715 SHRA BKN020TCU
BECMG 1800/1802 -RA BKN010 BKN025
ATIS : +33 4 68 63 75 12



MET'MAP, la Météo Aéronautique d'un coup d'oeil ! - Copyright ORBIFLY Décembre 2007 - Disclaimer

ORBIFLY MET'MAP TEAM :

Programmation & Développement : Alexandra Zaïnal
Conception & Développement : Baudouin d'Aumeries
Co-Programmation & Développement : Marc-Olivier Méhu
Soutien technique & logistique : Manuel Goepfert

Contact : metmap@orbifly.com




SOURCES & CREDITS :

   NOAA